»·PEaware :: N900PP KLBF-KAPA

N900PP :: KLBF-KAPA

FLIGHT INFORMATION

Flight Status: Arrived
Operator: Privately registered:
United States
More flights under this callsign
Pilot: Andrew F. (4171)
Aircraft: SOCATA TBM-900
(TBM9)
More flights by this aircraft type
Origin: KLBF North Platte Regl-Bird
United States
Destination: KAPA Centennial
United States
More flights between these airports :: More routes between these airports
Route: LBF AKO FQF
File this flight plan on PilotEdge
Remarks:
Altitude:
(Current/Filed)
14,000ft
Speed:
(Current/Filed)
200kts
Departed: 08-May-20 07:26 PM
Arrived: 08-May-20 08:29 PM
Distance/Time
Traveled:
212nm/1:03
Distance/Time
To Go:
Arrived

Flight Plot

Page will automatically refresh every two minutes.

Flight plan parsing failed; only flown route is shown


Map Options




Map Legend


Flown Route
Filed Route
Departure Airport
Arrival Airport
Navaid (VOR, NDB)
Fix

Horizontal Profiles

Position Reports

Time Latitude Longitude Heading Altitude Ground
Speed
08-May-20 19:16 41.124911 -100.680496 304 2769ft 1kts
08-May-20 19:17 41.125602 -100.681746 305 2769ft 8kts
08-May-20 19:18 41.127461 -100.685110 304 2769ft 12kts
08-May-20 19:19 41.129494 -100.688856 305 2772ft 13kts
08-May-20 19:20 41.131473 -100.690777 39 2774ft 0kts
08-May-20 19:21 41.131473 -100.690777 39 2774ft 0kts
08-May-20 19:22 41.131473 -100.690777 39 2774ft 0kts
08-May-20 19:23 41.131473 -100.690777 39 2774ft 0kts
08-May-20 19:24 41.131713 -100.690549 33 2773ft 5kts
08-May-20 19:25 41.127328 -100.681201 126 2925ft 108kts
08-May-20 19:26 41.102485 -100.652265 188 4853ft 145kts
08-May-20 19:27 41.076137 -100.692392 230 7151ft 145kts
08-May-20 19:28 41.052446 -100.733589 232 9327ft 138kts
08-May-20 19:29 41.036784 -100.777283 248 11251ft 134kts
08-May-20 19:30 41.019152 -100.830420 246 12610ft 191kts
08-May-20 19:31 40.996256 -100.895721 245 14013ft 207kts
08-May-20 19:32 40.969468 -100.971399 244 13999ft 230kts
08-May-20 19:33 40.942417 -101.047589 244 13997ft 226kts
08-May-20 19:34 40.915711 -101.122571 244 13994ft 225kts
08-May-20 19:35 40.889193 -101.196855 244 13994ft 224kts
08-May-20 19:36 40.862452 -101.271567 244 13991ft 225kts
08-May-20 19:37 40.835613 -101.346352 244 13990ft 225kts
08-May-20 19:38 40.808719 -101.421100 244 13990ft 224kts
08-May-20 19:39 40.781801 -101.495719 244 13989ft 224kts
08-May-20 19:40 40.754869 -101.570183 244 13989ft 224kts
08-May-20 19:41 40.727920 -101.644503 244 13989ft 224kts
08-May-20 19:42 40.700835 -101.719003 243 13992ft 225kts
08-May-20 19:44 40.673729 -101.793373 243 13992ft 225kts
08-May-20 19:45 40.646617 -101.867525 243 13991ft 225kts
08-May-20 19:46 40.619378 -101.941894 243 13991ft 225kts
08-May-20 19:47 40.592359 -102.015468 243 13990ft 221kts
08-May-20 19:48 40.565521 -102.088355 243 13990ft 220kts
08-May-20 19:49 40.538705 -102.160992 243 13990ft 220kts
08-May-20 19:50 40.511886 -102.233463 243 13989ft 220kts
08-May-20 19:51 40.484961 -102.306040 243 13989ft 220kts
08-May-20 19:52 40.458086 -102.378303 243 13989ft 220kts
08-May-20 19:53 40.431085 -102.450725 243 13988ft 220kts
08-May-20 19:54 40.404130 -102.522844 243 13988ft 220kts
08-May-20 19:55 40.377105 -102.594973 243 13988ft 220kts
08-May-20 19:56 40.349988 -102.667163 242 13991ft 220kts
08-May-20 19:57 40.322780 -102.739429 242 13990ft 220kts
08-May-20 19:58 40.295572 -102.811514 242 13979ft 221kts
08-May-20 19:59 40.268213 -102.883823 242 13969ft 220kts
08-May-20 20:00 40.241086 -102.955341 242 13961ft 217kts
08-May-20 20:01 40.214174 -103.026124 242 13962ft 217kts
08-May-20 20:01 40.191715 -103.085029 243 13980ft 217kts
08-May-20 20:02 40.164480 -103.156346 243 13980ft 219kts
08-May-20 20:04 40.135900 -103.242110 247 13980ft 220kts
08-May-20 20:04 40.116343 -103.304051 247 13980ft 221kts
08-May-20 20:05 40.092835 -103.378348 247 13980ft 221kts
08-May-20 20:06 40.069328 -103.452444 247 13979ft 221kts
08-May-20 20:07 40.045630 -103.526938 247 13967ft 221kts
08-May-20 20:08 40.021983 -103.601068 247 13956ft 221kts
08-May-20 20:09 39.998169 -103.675509 247 13947ft 221kts
08-May-20 20:10 39.974333 -103.749830 247 13945ft 221kts
08-May-20 20:11 39.950476 -103.824018 247 13944ft 221kts
08-May-20 20:12 39.926561 -103.898185 247 13944ft 221kts
08-May-20 20:13 39.902631 -103.972205 247 13941ft 221kts
08-May-20 20:14 39.878552 -104.046481 247 13935ft 222kts
08-May-20 20:15 39.854457 -104.120613 247 13925ft 222kts
08-May-20 20:16 39.830270 -104.194830 247 13917ft 222kts
08-May-20 20:17 39.806142 -104.268664 247 13881ft 223kts
08-May-20 20:18 39.779414 -104.347260 255 12795ft 248kts
08-May-20 20:19 39.763001 -104.434028 255 11695ft 246kts
08-May-20 20:20 39.747283 -104.520513 256 10688ft 241kts
08-May-20 20:21 39.732728 -104.604107 256 10170ft 232kts
08-May-20 20:22 39.718912 -104.685901 255 9666ft 230kts
08-May-20 20:23 39.705416 -104.768311 255 8805ft 229kts
08-May-20 20:24 39.691887 -104.847276 234 7730ft 212kts
08-May-20 20:25 39.647267 -104.854416 179 7331ft 142kts
08-May-20 20:26 39.613290 -104.852832 179 6498ft 92kts
08-May-20 20:27 39.588891 -104.851697 178 6023ft 88kts
08-May-20 20:28 39.574625 -104.851031 174 5887ft 19kts
08-May-20 20:29 39.572299 -104.849519 178 5887ft 12kts
08-May-20 20:30 39.569682 -104.847822 183 5887ft 7kts
08-May-20 20:31 39.569638 -104.847827 188 5887ft 0kts
08-May-20 20:32 39.569638 -104.847827 188 5887ft 0kts

Navigation Log

Ident Type
Flight plan parsing failed, navigation log unavailable